createdAt,value
2019-01-29T00:00:10.321Z,2.8
2019-01-29T00:01:19.428Z,2.9
2019-01-29T00:02:28.636Z,2.9
2019-01-29T00:03:37.909Z,2.8
2019-01-29T00:04:47.043Z,2.8
2019-01-29T00:05:56.248Z,2.8
2019-01-29T00:07:05.396Z,2.8
2019-01-29T00:08:14.595Z,2.8
2019-01-29T00:09:23.777Z,2.9
2019-01-29T00:10:32.990Z,2.8
2019-01-29T00:11:42.232Z,2.8
2019-01-29T00:12:51.467Z,2.8
2019-01-29T00:14:00.565Z,2.9
2019-01-29T00:15:09.756Z,2.9
2019-01-29T00:16:18.964Z,2.9
2019-01-29T00:17:28.154Z,2.9
2019-01-29T00:18:37.358Z,2.9
2019-01-29T00:19:46.545Z,2.9
2019-01-29T00:20:55.742Z,2.9
2019-01-29T00:22:05.024Z,2.9
2019-01-29T00:23:14.129Z,2.9
2019-01-29T00:24:23.333Z,2.9
2019-01-29T00:25:32.525Z,2.9
2019-01-29T00:26:41.723Z,2.9
2019-01-29T00:27:50.918Z,2.9
2019-01-29T00:29:00.122Z,2.9
2019-01-29T00:30:09.307Z,2.9
2019-01-29T00:31:18.526Z,2.9
2019-01-29T00:32:27.691Z,2.9
2019-01-29T00:33:36.884Z,2.9
2019-01-29T00:34:46.077Z,2.9
2019-01-29T00:35:55.275Z,2.9
2019-01-29T00:37:04.471Z,2.9
2019-01-29T00:38:13.658Z,2.9
2019-01-29T00:39:22.850Z,2.9
2019-01-29T00:40:32.088Z,2.9
2019-01-29T00:41:41.252Z,2.9
2019-01-29T00:42:50.438Z,2.9
2019-01-29T00:43:59.632Z,2.9
2019-01-29T00:45:08.835Z,2.9
2019-01-29T00:46:18.017Z,2.9
2019-01-29T00:47:27.217Z,2.9
2019-01-29T00:48:36.437Z,2.9
2019-01-29T00:49:45.632Z,2.9
2019-01-29T00:50:54.966Z,2.8
2019-01-29T00:52:03.991Z,2.8
2019-01-29T00:53:13.179Z,2.9
2019-01-29T00:54:22.375Z,2.9
2019-01-29T00:55:31.567Z,2.9
2019-01-29T00:56:40.838Z,2.8
2019-01-29T00:57:49.956Z,2.8
2019-01-29T00:58:59.147Z,2.8
2019-01-29T01:00:08.425Z,2.8
2019-01-29T01:01:17.540Z,2.8
2019-01-29T01:02:26.720Z,2.8
2019-01-29T01:03:35.928Z,2.8
2019-01-29T01:04:45.139Z,2.8
2019-01-29T01:05:54.307Z,2.7
2019-01-29T01:07:03.514Z,2.7
2019-01-29T01:08:12.688Z,2.6
2019-01-29T01:09:21.901Z,2.6
2019-01-29T01:10:31.072Z,2.5
2019-01-29T01:11:40.350Z,2.5
2019-01-29T01:12:49.460Z,2.5
2019-01-29T01:13:58.650Z,2.5
2019-01-29T01:15:07.831Z,2.4
2019-01-29T01:16:17.059Z,2.4
2019-01-29T01:17:26.218Z,2.4
2019-01-29T01:18:35.420Z,2.3
2019-01-29T01:19:44.618Z,2.3
2019-01-29T01:20:53.792Z,2.3
2019-01-29T01:22:02.966Z,2.3
2019-01-29T01:23:12.240Z,2.2
2019-01-29T01:24:21.364Z,2.2
2019-01-29T01:25:30.542Z,2.2
2019-01-29T01:26:39.743Z,2.2
2019-01-29T01:27:48.904Z,2.2
2019-01-29T01:28:58.095Z,2.2
2019-01-29T01:30:07.278Z,2.2
2019-01-29T01:31:16.623Z,2.2
2019-01-29T01:32:25.745Z,2.2
2019-01-29T01:33:34.837Z,2.2
2019-01-29T01:34:44.024Z,2.2
2019-01-29T01:35:53.199Z,2.2
2019-01-29T01:37:02.470Z,2.2
2019-01-29T01:38:11.557Z,2.2
2019-01-29T01:39:20.754Z,2.1
2019-01-29T01:40:29.934Z,2.1
2019-01-29T01:41:39.107Z,2.2
2019-01-29T01:42:48.306Z,2.2
2019-01-29T01:43:57.490Z,2.2
2019-01-29T01:45:06.656Z,2.2
2019-01-29T01:46:16.075Z,2.2
2019-01-29T01:47:25.007Z,2.2
2019-01-29T01:48:34.236Z,2.2
2019-01-29T01:49:43.393Z,2.2
2019-01-29T01:50:52.558Z,2.2
2019-01-29T01:52:01.776Z,2.2
2019-01-29T01:53:10.923Z,2.2
2019-01-29T01:54:20.110Z,2.3
2019-01-29T01:55:29.275Z,2.3
2019-01-29T01:56:38.503Z,2.2
2019-01-29T01:57:47.649Z,2.3
2019-01-29T01:58:56.822Z,2.2
2019-01-29T02:00:06.000Z,2.2
2019-01-29T02:01:15.182Z,2.3
2019-01-29T02:02:24.363Z,2.3
2019-01-29T02:03:33.548Z,2.3
2019-01-29T02:04:42.791Z,2.3
2019-01-29T02:05:51.896Z,2.3
2019-01-29T02:07:01.082Z,2.3
2019-01-29T02:08:10.267Z,2.3
2019-01-29T02:09:19.439Z,2.3
2019-01-29T02:10:28.652Z,2.3
2019-01-29T02:11:37.795Z,2.3
2019-01-29T02:12:47.076Z,2.3
2019-01-29T02:13:56.173Z,2.3
2019-01-29T02:15:05.350Z,2.3
2019-01-29T02:16:14.542Z,2.3
2019-01-29T02:17:23.703Z,2.3
2019-01-29T02:18:32.909Z,2.3
2019-01-29T02:19:42.063Z,2.2
2019-01-29T02:20:51.241Z,2.3
2019-01-29T02:22:00.432Z,2.3
2019-01-29T02:23:09.611Z,2.3
2019-01-29T02:24:18.798Z,2.3
2019-01-29T02:25:27.977Z,2.2
2019-01-29T02:26:37.152Z,2.3
2019-01-29T02:27:46.377Z,2.2
2019-01-29T02:28:55.508Z,2.2
2019-01-29T02:30:04.685Z,2.2
2019-01-29T02:31:13.991Z,2.2
2019-01-29T02:32:23.048Z,2.2
2019-01-29T02:33:32.215Z,2.2
2019-01-29T02:34:41.430Z,2.2
2019-01-29T02:35:50.583Z,2.2
2019-01-29T02:36:59.754Z,2.2
2019-01-29T02:38:08.987Z,2.2
2019-01-29T02:39:18.118Z,2.2
2019-01-29T02:40:27.315Z,2.1
2019-01-29T02:41:36.470Z,2.2
2019-01-29T02:42:45.646Z,2.2
2019-01-29T02:43:54.833Z,2.1
2019-01-29T02:45:04.009Z,2.1
2019-01-29T02:46:13.184Z,2.1
2019-01-29T02:47:22.422Z,2.1
2019-01-29T02:48:31.537Z,2.1
2019-01-29T02:49:40.833Z,2
2019-01-29T02:50:49.911Z,2
2019-01-29T02:51:59.066Z,2
2019-01-29T02:53:17.732Z,2
2019-01-29T02:54:17.493Z,1.9
2019-01-29T02:55:26.613Z,1.9
2019-01-29T02:56:35.782Z,1.9
2019-01-29T02:57:44.950Z,1.8
2019-01-29T02:58:54.169Z,1.8
2019-01-29T03:00:03.309Z,1.8
2019-01-29T03:01:12.478Z,1.7
2019-01-29T03:02:21.680Z,1.8
2019-01-29T03:03:30.821Z,1.7
2019-01-29T03:04:40.024Z,1.6
2019-01-29T03:05:49.254Z,1.6
2019-01-29T03:06:58.346Z,1.6
2019-01-29T03:08:07.518Z,1.6
2019-01-29T03:09:16.737Z,1.6
2019-01-29T03:10:25.859Z,1.6
2019-01-29T03:11:35.025Z,1.6
2019-01-29T03:12:44.259Z,1.6
2019-01-29T03:13:53.398Z,1.6
2019-01-29T03:15:02.541Z,1.6
2019-01-29T03:16:11.718Z,1.6
2019-01-29T03:17:20.897Z,1.6
2019-01-29T03:18:30.048Z,1.6
2019-01-29T03:19:39.249Z,1.6
2019-01-29T03:20:48.429Z,1.5
2019-01-29T03:21:57.556Z,1.5
2019-01-29T03:23:06.733Z,1.4
2019-01-29T03:24:15.895Z,1.4
2019-01-29T03:25:25.046Z,1.4
2019-01-29T03:26:34.218Z,1.4
2019-01-29T03:27:43.382Z,1.4
2019-01-29T03:28:52.550Z,1.3
2019-01-29T03:30:01.710Z,1.4
2019-01-29T03:31:10.891Z,1.3
2019-01-29T03:32:20.068Z,1.3
2019-01-29T03:33:29.218Z,1.3
2019-01-29T03:34:38.387Z,1.3
2019-01-29T03:35:47.582Z,1.3
2019-01-29T03:36:56.706Z,1.2
2019-01-29T03:38:05.857Z,1.3
2019-01-29T03:39:15.015Z,1.2
2019-01-29T03:40:24.185Z,1.2
2019-01-29T03:41:33.367Z,1.2
2019-01-29T03:42:42.500Z,1.3
2019-01-29T03:43:51.658Z,1.2
2019-01-29T03:45:00.825Z,1.2
2019-01-29T03:46:09.986Z,1.2
2019-01-29T03:47:19.173Z,1.2
2019-01-29T03:48:28.307Z,1.3
2019-01-29T03:49:37.469Z,1.2
2019-01-29T03:50:46.662Z,1.2
2019-01-29T03:51:55.856Z,1.2
2019-01-29T03:53:04.955Z,1.2
2019-01-29T03:54:14.174Z,1.2
2019-01-29T03:55:23.290Z,1.2
2019-01-29T03:56:32.493Z,1.2
2019-01-29T03:57:41.603Z,1.2
2019-01-29T03:58:50.759Z,1.2
2019-01-29T03:59:59.916Z,1.2
2019-01-29T04:01:09.082Z,1.2
2019-01-29T04:02:18.272Z,1.2
2019-01-29T04:03:27.438Z,1.2
2019-01-29T04:04:36.552Z,1.2
2019-01-29T04:05:45.713Z,1.2
2019-01-29T04:06:54.934Z,1.2
2019-01-29T04:08:04.022Z,1.2
2019-01-29T04:09:13.187Z,1.2
2019-01-29T04:10:22.381Z,1.2
2019-01-29T04:11:31.498Z,1.2
2019-01-29T04:12:40.683Z,1.2
2019-01-29T04:13:49.824Z,1.2
2019-01-29T04:14:58.989Z,1.2
2019-01-29T04:16:08.136Z,1.2
2019-01-29T04:17:17.352Z,1.2
2019-01-29T04:18:26.469Z,1.2
2019-01-29T04:19:35.621Z,1.2
2019-01-29T04:20:44.767Z,1.1
2019-01-29T04:21:53.948Z,1.2
2019-01-29T04:23:03.093Z,1.2
2019-01-29T04:24:12.257Z,1.2
2019-01-29T04:25:21.425Z,1.2
2019-01-29T04:26:30.565Z,1.2
2019-01-29T04:27:39.743Z,1.2
2019-01-29T04:28:48.915Z,1.2
2019-01-29T04:29:58.031Z,1.2
2019-01-29T04:31:07.188Z,1.2
2019-01-29T04:32:16.407Z,1.2
2019-01-29T04:33:25.509Z,1.2
2019-01-29T04:34:34.679Z,1.2
2019-01-29T04:35:43.815Z,1.1
2019-01-29T04:36:53.058Z,1.1
2019-01-29T04:38:02.181Z,1.1
2019-01-29T04:39:11.277Z,1.1
2019-01-29T04:40:20.460Z,1.1
2019-01-29T04:41:29.639Z,1.1
2019-01-29T04:42:38.741Z,1.1
2019-01-29T04:43:47.913Z,1.1
2019-01-29T04:44:57.057Z,1.1
2019-01-29T04:46:06.219Z,1
2019-01-29T04:47:15.376Z,1
2019-01-29T04:48:24.526Z,1
2019-01-29T04:49:33.727Z,1
2019-01-29T04:50:42.835Z,1
2019-01-29T04:51:52.001Z,1
2019-01-29T04:53:01.160Z,1
2019-01-29T04:54:10.279Z,1
2019-01-29T04:55:19.462Z,1
2019-01-29T04:56:28.598Z,1
2019-01-29T04:57:37.732Z,1
2019-01-29T04:58:46.892Z,1
2019-01-29T04:59:56.056Z,1
2019-01-29T05:01:05.188Z,1
2019-01-29T05:02:14.339Z,0.9
2019-01-29T05:03:23.487Z,1
2019-01-29T05:04:32.631Z,1
2019-01-29T05:05:41.846Z,0.9
2019-01-29T05:06:51.019Z,0.9
2019-01-29T05:08:00.118Z,0.9
2019-01-29T05:09:09.246Z,0.9
2019-01-29T05:10:18.401Z,0.9
2019-01-29T05:11:27.561Z,0.9
2019-01-29T05:12:36.705Z,0.9
2019-01-29T05:13:45.848Z,0.9
2019-01-29T05:14:55.005Z,0.9
2019-01-29T05:16:04.178Z,0.9
2019-01-29T05:17:13.298Z,0.9
2019-01-29T05:18:22.497Z,0.8
2019-01-29T05:19:31.596Z,0.8
2019-01-29T05:20:40.764Z,0.8
2019-01-29T05:21:49.899Z,0.8
2019-01-29T05:22:59.041Z,0.8
2019-01-29T05:24:08.203Z,0.8
2019-01-29T05:25:17.390Z,0.8
2019-01-29T05:26:26.492Z,0.8
2019-01-29T05:27:35.636Z,0.8
2019-01-29T05:28:44.790Z,0.8
2019-01-29T05:29:53.960Z,0.7
2019-01-29T05:31:03.140Z,0.7
2019-01-29T05:32:12.262Z,0.7
2019-01-29T05:33:21.381Z,0.7
2019-01-29T05:34:30.595Z,0.6
2019-01-29T05:35:39.676Z,0.7
2019-01-29T05:36:48.825Z,0.6
2019-01-29T05:37:57.978Z,0.6
2019-01-29T05:40:16.306Z,0.5
2019-01-29T05:41:25.479Z,0.5
2019-01-29T05:42:34.592Z,0.5
2019-01-29T05:43:43.699Z,0.5
2019-01-29T05:44:52.980Z,0.4
2019-01-29T05:46:01.982Z,0.4
2019-01-29T05:47:11.110Z,0.3
2019-01-29T05:48:20.297Z,0.3
2019-01-29T05:49:29.403Z,0.3
2019-01-29T05:50:38.524Z,0.3
2019-01-29T05:51:47.658Z,0.3
2019-01-29T05:52:56.794Z,0.2
2019-01-29T05:54:05.929Z,0.2
2019-01-29T05:55:15.126Z,0.2
2019-01-29T05:56:24.199Z,0.2
2019-01-29T05:57:33.348Z,0.2
2019-01-29T05:58:42.480Z,0.2
2019-01-29T05:59:51.599Z,0.2
2019-01-29T06:01:00.755Z,0.2
2019-01-29T06:02:09.937Z,0.1
2019-01-29T06:03:19.008Z,0.1
2019-01-29T06:04:28.186Z,0.1
2019-01-29T06:05:37.278Z,0.1
2019-01-29T06:06:46.429Z,0.1
2019-01-29T06:09:04.658Z,0.1
2019-01-29T06:15:59.485Z,-0.1
2019-01-29T06:17:08.607Z,-0.1
2019-01-29T06:25:12.547Z,-0.1
2019-01-29T06:26:21.567Z,-0.1
2019-01-29T06:27:30.688Z,-0.1
2019-01-29T06:29:48.988Z,-0.1
2019-01-29T06:30:58.050Z,-0.1
2019-01-29T06:32:07.261Z,-0.1
2019-01-29T06:33:16.391Z,-0.1
2019-01-29T06:34:25.545Z,-0.1
2019-01-29T06:35:34.573Z,-0.1
2019-01-29T06:36:43.755Z,-0.1
2019-01-29T06:37:52.808Z,-0.1
2019-01-29T06:39:01.937Z,-0.1
2019-01-29T06:40:11.055Z,-0.1
2019-01-29T06:42:29.305Z,-0.1
2019-01-29T06:43:38.511Z,-0.1
2019-01-29T06:44:47.578Z,-0.1
2019-01-29T06:45:56.669Z,-0.1
2019-01-29T06:47:05.829Z,-0.1
2019-01-29T06:48:14.916Z,-0.1
2019-01-29T06:49:24.047Z,-0.1
2019-01-29T06:50:33.165Z,-0.1
2019-01-29T06:51:42.300Z,-0.2
2019-01-29T06:52:51.398Z,-0.2
2019-01-29T06:54:00.546Z,-0.1
2019-01-29T06:55:09.680Z,-0.2
2019-01-29T06:56:18.800Z,-0.3
2019-01-29T06:57:27.892Z,-0.3
2019-01-29T06:58:37.059Z,-0.3
2019-01-29T06:59:46.202Z,-0.1
2019-01-29T07:00:55.258Z,-0.2
2019-01-29T07:02:04.417Z,-0.1
2019-01-29T07:03:13.511Z,-0.1
2019-01-29T07:07:50.006Z,0.1
2019-01-29T07:10:08.220Z,0.1
2019-01-29T07:11:17.394Z,0.1
2019-01-29T07:12:26.473Z,0.1
2019-01-29T07:13:35.606Z,0.1
2019-01-29T07:14:44.716Z,0.2
2019-01-29T07:15:53.837Z,0.2
2019-01-29T07:17:02.956Z,0.2
2019-01-29T07:18:12.095Z,0.2
2019-01-29T07:19:21.219Z,0.2
2019-01-29T07:20:30.523Z,0.3
2019-01-29T07:21:39.463Z,0.3
2019-01-29T07:22:48.584Z,0.3
2019-01-29T07:23:57.785Z,0.3
2019-01-29T07:25:06.837Z,0.3
2019-01-29T07:26:15.978Z,0.3
2019-01-29T07:27:25.115Z,0.3
2019-01-29T07:28:34.222Z,0.3
2019-01-29T07:29:43.352Z,0.3
2019-01-29T07:30:52.498Z,0.3
2019-01-29T07:32:01.894Z,0.3
2019-01-29T07:33:10.742Z,0.4
2019-01-29T07:34:19.877Z,0.4
2019-01-29T07:35:29.037Z,0.4
2019-01-29T07:36:38.140Z,0.4
2019-01-29T07:37:47.331Z,0.4
2019-01-29T07:38:56.400Z,0.4
2019-01-29T07:40:05.553Z,0.5
2019-01-29T07:41:14.653Z,0.5
2019-01-29T07:42:23.792Z,0.5
2019-01-29T07:43:32.976Z,0.5
2019-01-29T07:44:42.082Z,0.5
2019-01-29T07:45:51.184Z,0.5
2019-01-29T07:47:00.330Z,0.6
2019-01-29T07:48:09.463Z,0.6
2019-01-29T07:49:18.784Z,0.7
2019-01-29T07:50:27.786Z,0.7
2019-01-29T07:51:36.865Z,0.7
2019-01-29T07:52:46.008Z,0.7
2019-01-29T07:53:55.222Z,0.7
2019-01-29T07:55:04.319Z,0.7
2019-01-29T07:56:13.411Z,0.7
2019-01-29T07:57:22.546Z,0.7
2019-01-29T07:58:31.688Z,0.8
2019-01-29T07:59:40.836Z,0.8
2019-01-29T08:00:49.961Z,0.8
2019-01-29T08:01:59.113Z,0.8
2019-01-29T08:03:08.242Z,0.8
2019-01-29T08:04:17.579Z,0.9
2019-01-29T08:05:26.873Z,0.9
2019-01-29T08:06:35.672Z,1
2019-01-29T08:07:44.825Z,1
2019-01-29T08:08:53.958Z,1
2019-01-29T08:10:03.337Z,1
2019-01-29T08:11:12.267Z,1
2019-01-29T08:12:21.378Z,1
2019-01-29T08:13:30.547Z,1.1
2019-01-29T08:14:39.675Z,1.1
2019-01-29T08:15:48.910Z,1.1
2019-01-29T08:16:57.959Z,1.1
2019-01-29T08:18:07.115Z,1.1
2019-01-29T08:19:16.308Z,1.1
2019-01-29T08:20:25.428Z,1.1
2019-01-29T08:21:34.704Z,1.2
2019-01-29T08:22:43.692Z,1.2
2019-01-29T08:23:52.848Z,1.2
2019-01-29T08:25:02.326Z,1.2
2019-01-29T08:26:11.146Z,1.3
2019-01-29T08:27:20.295Z,1.2
2019-01-29T08:28:29.449Z,1.2
2019-01-29T08:29:38.636Z,1.2
2019-01-29T08:30:47.777Z,1.3
2019-01-29T08:31:56.931Z,1.3
2019-01-29T08:33:06.089Z,1.3
2019-01-29T08:34:15.214Z,1.3
2019-01-29T08:35:24.370Z,1.3
2019-01-29T08:36:33.559Z,1.3
2019-01-29T08:37:42.678Z,1.3
2019-01-29T08:38:51.832Z,1.2
2019-01-29T08:40:00.975Z,1.3
2019-01-29T08:41:10.158Z,1.3
2019-01-29T08:42:19.300Z,1.3
2019-01-29T08:43:28.453Z,1.3
2019-01-29T08:44:37.622Z,1.3
2019-01-29T08:45:46.768Z,1.3
2019-01-29T08:46:55.928Z,1.3
2019-01-29T08:48:05.075Z,1.3
2019-01-29T08:49:14.225Z,1.4
2019-01-29T08:50:23.387Z,1.4
2019-01-29T08:51:32.843Z,1.5
2019-01-29T08:52:41.708Z,1.5
2019-01-29T08:53:50.855Z,1.5
2019-01-29T08:55:00.018Z,1.5
2019-01-29T08:56:09.166Z,1.5
2019-01-29T08:57:18.355Z,1.5
2019-01-29T08:58:27.540Z,1.5
2019-01-29T08:59:36.674Z,1.5
2019-01-29T09:00:45.799Z,1.5
2019-01-29T09:03:04.159Z,1.5
2019-01-29T09:04:13.284Z,1.5
2019-01-29T09:05:22.441Z,1.5
2019-01-29T09:06:31.600Z,1.5
2019-01-29T09:07:40.829Z,1.6
2019-01-29T09:08:49.919Z,1.5
2019-01-29T09:09:59.106Z,1.6
2019-01-29T09:11:08.246Z,1.6
2019-01-29T09:12:17.505Z,1.6
2019-01-29T09:13:26.594Z,1.6
2019-01-29T09:14:35.730Z,1.6
2019-01-29T09:15:44.924Z,1.6
2019-01-29T09:16:54.044Z,1.6
2019-01-29T09:18:03.262Z,1.7
2019-01-29T09:19:12.422Z,1.7
2019-01-29T09:20:21.534Z,1.7
2019-01-29T09:21:30.719Z,1.7
2019-01-29T09:22:39.895Z,1.8
2019-01-29T09:23:49.027Z,1.8
2019-01-29T09:24:58.179Z,1.8
2019-01-29T09:26:07.354Z,1.8
2019-01-29T09:27:16.562Z,1.8
2019-01-29T09:28:25.704Z,1.8
2019-01-29T09:29:34.842Z,1.8
2019-01-29T09:30:44.047Z,1.8
2019-01-29T09:31:53.188Z,1.9
2019-01-29T09:33:02.376Z,1.9
2019-01-29T09:34:11.526Z,1.8
2019-01-29T09:35:20.697Z,1.8
2019-01-29T09:36:29.843Z,1.8
2019-01-29T09:37:39.051Z,1.8
2019-01-29T09:38:48.200Z,1.8
2019-01-29T09:39:57.363Z,1.9
2019-01-29T09:41:06.574Z,1.8
2019-01-29T09:42:15.692Z,1.9
2019-01-29T09:43:24.874Z,1.9
2019-01-29T09:44:34.079Z,1.8
2019-01-29T09:45:43.211Z,1.9
2019-01-29T09:46:52.392Z,1.9
2019-01-29T09:48:01.554Z,1.9
2019-01-29T09:49:11.267Z,1.9
2019-01-29T09:50:19.896Z,2
2019-01-29T09:51:29.063Z,2
2019-01-29T09:52:38.244Z,2
2019-01-29T09:53:47.512Z,2.1
2019-01-29T09:54:56.617Z,2.1
2019-01-29T09:56:05.761Z,2.1
2019-01-29T09:57:14.997Z,2.2
2019-01-29T09:58:24.185Z,2.2
2019-01-29T09:59:33.305Z,2.2
2019-01-29T10:00:42.486Z,2.2
2019-01-29T10:01:51.685Z,2.2
2019-01-29T10:03:00.827Z,2.2
2019-01-29T10:04:10.008Z,2.2
2019-01-29T10:05:19.184Z,2.2
2019-01-29T10:06:28.448Z,2.2
2019-01-29T10:07:37.558Z,2.2
2019-01-29T10:08:46.782Z,2.2
2019-01-29T10:09:55.898Z,2.3
2019-01-29T10:11:05.086Z,2.3
2019-01-29T10:12:14.271Z,2.3
2019-01-29T10:13:23.442Z,2.3
2019-01-29T10:14:32.696Z,2.3
2019-01-29T10:15:41.805Z,2.4
2019-01-29T10:16:51.036Z,2.4
2019-01-29T10:18:00.194Z,2.4
2019-01-29T10:19:09.400Z,2.4
2019-01-29T10:20:18.534Z,2.3
2019-01-29T10:21:27.733Z,2.3
2019-01-29T10:22:37.052Z,2.4
2019-01-29T10:23:46.183Z,2.4
2019-01-29T10:24:55.270Z,2.5
2019-01-29T10:26:04.472Z,2.4
2019-01-29T10:27:13.666Z,2.5
2019-01-29T10:28:22.851Z,2.5
2019-01-29T10:29:32.012Z,2.5
2019-01-29T10:30:41.232Z,2.5
2019-01-29T10:31:50.381Z,2.4
2019-01-29T10:32:59.566Z,2.5
2019-01-29T10:34:08.792Z,2.5
2019-01-29T10:35:17.943Z,2.5
2019-01-29T10:36:27.163Z,2.5
2019-01-29T10:37:36.310Z,2.5
2019-01-29T10:38:45.502Z,2.5
2019-01-29T10:39:54.683Z,2.6
2019-01-29T10:41:03.894Z,2.6
2019-01-29T10:42:13.100Z,2.6
2019-01-29T10:43:22.260Z,2.6
2019-01-29T10:44:31.456Z,2.6
2019-01-29T10:45:40.646Z,2.7
2019-01-29T10:46:49.820Z,2.7
2019-01-29T10:47:59.006Z,2.7
2019-01-29T10:49:08.209Z,2.7
2019-01-29T10:50:17.706Z,2.6
2019-01-29T10:51:26.595Z,2.7
2019-01-29T10:52:35.792Z,2.7
2019-01-29T10:53:45.020Z,2.6
2019-01-29T10:56:03.626Z,2.7
2019-01-29T10:57:12.572Z,2.7
2019-01-29T10:58:21.757Z,2.8
2019-01-29T10:59:31.049Z,2.8
2019-01-29T11:00:40.295Z,2.8
2019-01-29T11:01:49.351Z,2.8
2019-01-29T11:02:58.612Z,2.7
2019-01-29T11:04:07.757Z,2.7
2019-01-29T11:05:16.966Z,2.6
2019-01-29T11:06:26.133Z,2.7
2019-01-29T11:07:35.412Z,2.7
2019-01-29T11:08:44.522Z,2.7
2019-01-29T11:09:53.715Z,2.6
2019-01-29T11:11:03.048Z,2.6
2019-01-29T11:12:12.097Z,2.6
2019-01-29T11:13:21.302Z,2.6
2019-01-29T11:14:30.563Z,2.6
2019-01-29T11:15:39.690Z,2.6
2019-01-29T11:16:48.880Z,2.7
2019-01-29T11:17:58.099Z,2.7
2019-01-29T11:19:07.296Z,2.8
2019-01-29T11:20:16.514Z,2.8
2019-01-29T11:21:25.674Z,2.8
2019-01-29T11:22:34.877Z,2.8
2019-01-29T11:23:44.044Z,2.8
2019-01-29T11:24:53.243Z,2.8
2019-01-29T11:26:02.570Z,2.8
2019-01-29T11:27:11.632Z,2.8
2019-01-29T11:28:20.857Z,2.8
2019-01-29T11:29:30.029Z,2.6
2019-01-29T11:30:39.234Z,2.7
2019-01-29T11:31:48.524Z,2.7
2019-01-29T11:32:57.629Z,2.8
2019-01-29T11:34:06.881Z,2.9
2019-01-29T11:35:16.025Z,3
2019-01-29T11:36:25.240Z,2.9
2019-01-29T11:37:34.441Z,3
2019-01-29T11:38:43.649Z,3
2019-01-29T11:39:52.931Z,2.8
2019-01-29T11:41:02.117Z,2.8
2019-01-29T11:42:11.263Z,2.7
2019-01-29T11:43:20.475Z,2.7
2019-01-29T11:44:29.643Z,2.8
2019-01-29T11:45:38.877Z,2.8
2019-01-29T11:46:48.065Z,2.8
2019-01-29T11:47:57.275Z,2.8
2019-01-29T11:49:06.599Z,2.8
2019-01-29T11:50:15.654Z,2.9
2019-01-29T11:51:24.857Z,2.9
2019-01-29T11:52:34.065Z,2.9
2019-01-29T11:53:43.241Z,2.9
2019-01-29T11:54:52.471Z,3
2019-01-29T11:56:04.520Z,3
2019-01-29T11:57:10.837Z,3
2019-01-29T11:58:21.923Z,2.9
2019-01-29T11:59:29.239Z,2.9
2019-01-29T12:00:38.454Z,2.9
2019-01-29T12:01:47.631Z,3
2019-01-29T12:02:56.838Z,3
2019-01-29T12:04:06.037Z,3.1
2019-01-29T12:05:15.255Z,3.1
2019-01-29T12:06:24.450Z,3.1
2019-01-29T12:07:33.655Z,3.2
2019-01-29T12:08:42.859Z,3.2
2019-01-29T12:09:52.077Z,3.2
2019-01-29T12:11:01.506Z,3.2
2019-01-29T12:12:10.469Z,3.3
2019-01-29T12:13:19.764Z,3.3
2019-01-29T12:14:29.038Z,3.4
2019-01-29T12:15:38.101Z,3.4
2019-01-29T12:16:47.329Z,3.4
2019-01-29T12:17:56.531Z,3.5
2019-01-29T12:19:05.738Z,3.6
2019-01-29T12:20:15.022Z,3.6
2019-01-29T12:21:24.145Z,3.5
2019-01-29T12:22:33.375Z,3.6
2019-01-29T12:23:42.578Z,3.6
2019-01-29T12:24:51.796Z,3.6
2019-01-29T12:26:00.998Z,3.6
2019-01-29T12:27:10.222Z,3.7
2019-01-29T12:28:19.730Z,4
2019-01-29T12:29:28.686Z,4
2019-01-29T12:30:37.877Z,4.4
2019-01-29T12:31:47.109Z,4.5
2019-01-29T12:32:56.335Z,4.6
2019-01-29T12:34:05.561Z,4.7
2019-01-29T12:35:14.797Z,4.8
2019-01-29T12:36:24.026Z,4.8
2019-01-29T12:37:33.302Z,4.8
2019-01-29T12:38:42.506Z,4.8
2019-01-29T12:39:51.736Z,4.8
2019-01-29T12:41:00.980Z,4.8
2019-01-29T12:42:10.226Z,4.7
2019-01-29T12:43:19.453Z,4.6
2019-01-29T12:44:28.699Z,4.3
2019-01-29T12:45:37.924Z,4.2
2019-01-29T12:46:47.237Z,4.3
2019-01-29T12:47:56.485Z,4.2
2019-01-29T12:49:05.643Z,4.1
2019-01-29T12:50:14.898Z,4.2
2019-01-29T12:51:24.130Z,4.3
2019-01-29T12:52:33.376Z,4.4
2019-01-29T12:53:42.617Z,4.3
2019-01-29T12:54:52.009Z,4.3
2019-01-29T12:56:01.147Z,4.3
2019-01-29T12:57:10.368Z,4.2
2019-01-29T12:58:19.609Z,4.4
2019-01-29T12:59:28.843Z,4.6
2019-01-29T13:00:38.075Z,4.8
2019-01-29T13:01:47.400Z,4.6
2019-01-29T13:02:56.650Z,4.8
2019-01-29T13:04:05.835Z,4.9
2019-01-29T13:05:15.097Z,4.7
2019-01-29T13:06:24.351Z,5
2019-01-29T13:07:33.654Z,5.6
2019-01-29T13:08:42.858Z,5.4
2019-01-29T13:09:52.111Z,5
2019-01-29T13:11:01.519Z,4.8
2019-01-29T13:12:10.639Z,4.8
2019-01-29T13:13:19.883Z,4.7
2019-01-29T13:14:29.136Z,4.5
2019-01-29T13:15:38.427Z,4.7
2019-01-29T13:16:47.740Z,5
2019-01-29T13:17:56.903Z,4.9
2019-01-29T13:19:06.164Z,4.6
2019-01-29T13:20:15.418Z,4.2
2019-01-29T13:21:24.673Z,4.3
2019-01-29T13:22:33.941Z,4.4
2019-01-29T13:23:43.208Z,4.3
2019-01-29T13:24:52.428Z,4.3
2019-01-29T13:26:01.706Z,4.1
2019-01-29T13:27:11.108Z,3.9
2019-01-29T13:28:20.191Z,4
2019-01-29T13:29:29.400Z,3.9
2019-01-29T13:30:38.659Z,3.9
2019-01-29T13:31:47.898Z,3.9
2019-01-29T13:32:57.136Z,4
2019-01-29T13:34:06.401Z,4.1
2019-01-29T13:35:15.625Z,4
2019-01-29T13:36:24.987Z,4
2019-01-29T13:37:34.108Z,4.1
2019-01-29T13:38:43.336Z,4.1
2019-01-29T13:39:52.583Z,4.2
2019-01-29T13:41:01.814Z,4.3
2019-01-29T13:42:11.056Z,4
2019-01-29T13:43:20.291Z,3.9
2019-01-29T13:44:29.531Z,4
2019-01-29T13:45:38.783Z,4
2019-01-29T13:46:48.032Z,4.1
2019-01-29T13:47:57.244Z,4.2
2019-01-29T13:49:06.493Z,4
2019-01-29T13:50:15.723Z,4.1
2019-01-29T13:51:24.960Z,4.2
2019-01-29T13:52:34.250Z,4.1
2019-01-29T13:53:43.470Z,4.1
2019-01-29T13:54:52.664Z,4
2019-01-29T13:56:01.946Z,3.9
2019-01-29T13:57:11.137Z,4
2019-01-29T13:58:20.365Z,4
2019-01-29T13:59:29.595Z,4.1
2019-01-29T14:00:38.855Z,4
2019-01-29T14:01:48.079Z,4.1
2019-01-29T14:02:57.341Z,4
2019-01-29T14:04:06.662Z,4
2019-01-29T14:05:15.775Z,4.1
2019-01-29T14:06:25.014Z,4
2019-01-29T14:07:34.253Z,3.8
2019-01-29T14:08:43.497Z,3.8
2019-01-29T14:09:52.701Z,3.8
2019-01-29T14:11:01.947Z,3.8
2019-01-29T14:12:11.233Z,3.8
2019-01-29T14:13:20.411Z,3.8
2019-01-29T14:14:29.617Z,3.6
2019-01-29T14:15:38.852Z,3.8
2019-01-29T14:16:48.090Z,3.8
2019-01-29T14:17:57.305Z,3.9
2019-01-29T14:19:06.568Z,3.8
2019-01-29T14:20:15.759Z,3.8
2019-01-29T14:21:24.978Z,3.9
2019-01-29T14:22:34.335Z,3.8
2019-01-29T14:23:43.442Z,3.8
2019-01-29T14:24:52.680Z,3.7
2019-01-29T14:26:01.945Z,3.7
2019-01-29T14:27:11.126Z,3.9
2019-01-29T14:28:20.338Z,3.9
2019-01-29T14:29:29.567Z,3.9
2019-01-29T14:30:38.796Z,4
2019-01-29T14:31:48.025Z,4
2019-01-29T14:32:57.262Z,3.8
2019-01-29T14:34:06.466Z,3.8
2019-01-29T14:35:15.686Z,3.8
2019-01-29T14:36:24.907Z,3.8
2019-01-29T14:37:34.130Z,3.9
2019-01-29T14:38:43.349Z,3.8
2019-01-29T14:39:52.584Z,3.9
2019-01-29T14:41:01.861Z,3.7
2019-01-29T14:42:11.062Z,3.8
2019-01-29T14:43:20.253Z,3.8
2019-01-29T14:44:29.480Z,3.9
2019-01-29T14:45:38.687Z,3.8
2019-01-29T14:46:47.960Z,3.9
2019-01-29T14:47:57.192Z,3.9
2019-01-29T14:49:06.367Z,3.7
2019-01-29T14:50:15.619Z,3.7
2019-01-29T14:51:24.823Z,3.8
2019-01-29T14:52:34.052Z,3.9
2019-01-29T14:53:43.226Z,3.8
2019-01-29T14:54:52.485Z,3.8
2019-01-29T14:56:01.696Z,3.8
2019-01-29T14:57:10.889Z,3.9
2019-01-29T14:58:20.127Z,3.8
2019-01-29T14:59:29.330Z,3.9
2019-01-29T15:00:38.545Z,3.8
2019-01-29T15:01:47.779Z,3.8
2019-01-29T15:02:56.979Z,3.7
2019-01-29T15:04:06.214Z,3.7
2019-01-29T15:05:15.416Z,3.8
2019-01-29T15:06:32.152Z,3.8
2019-01-29T15:07:33.851Z,3.7
2019-01-29T15:08:43.094Z,3.8
2019-01-29T15:09:52.309Z,3.8
2019-01-29T15:11:01.503Z,3.6
2019-01-29T15:12:10.715Z,3.7
2019-01-29T15:13:19.933Z,3.7
2019-01-29T15:14:29.168Z,3.7
2019-01-29T15:15:38.412Z,3.7
2019-01-29T15:16:47.845Z,3.6
2019-01-29T15:17:56.875Z,3.6
2019-01-29T15:19:06.013Z,3.6
2019-01-29T15:20:15.226Z,3.6
2019-01-29T15:21:24.462Z,3.6
2019-01-29T15:22:33.657Z,3.7
2019-01-29T15:23:42.876Z,3.6
2019-01-29T15:24:52.139Z,3.8
2019-01-29T15:26:01.371Z,3.7
2019-01-29T15:27:10.498Z,3.7
2019-01-29T15:28:19.703Z,3.6
2019-01-29T15:29:28.918Z,3.6
2019-01-29T15:30:38.207Z,3.6
2019-01-29T15:31:47.374Z,3.5
2019-01-29T15:32:56.569Z,3.5
2019-01-29T15:34:05.783Z,3.5
2019-01-29T15:35:14.985Z,3.5
2019-01-29T15:36:24.221Z,3.5
2019-01-29T15:37:33.440Z,3.5
2019-01-29T15:38:42.609Z,3.5
2019-01-29T15:39:51.838Z,3.5
2019-01-29T15:41:01.021Z,3.5
2019-01-29T15:42:10.253Z,3.6
2019-01-29T15:43:19.481Z,3.6
2019-01-29T15:44:28.640Z,3.5
2019-01-29T15:45:37.908Z,3.5
2019-01-29T15:46:47.054Z,3.5
2019-01-29T15:47:56.304Z,3.5
2019-01-29T15:49:05.464Z,3.5
2019-01-29T15:50:14.666Z,3.5
2019-01-29T15:51:23.882Z,3.5
2019-01-29T15:52:33.082Z,3.5
2019-01-29T15:53:42.283Z,3.5
2019-01-29T15:54:51.495Z,3.5
2019-01-29T15:56:00.737Z,3.5
2019-01-29T15:57:14.159Z,3.5
2019-01-29T15:58:20.671Z,3.5
2019-01-29T15:59:29.879Z,3.5
2019-01-29T16:00:39.107Z,3.5
2019-01-29T16:01:48.308Z,3.5
2019-01-29T16:02:57.496Z,3.5
2019-01-29T16:04:06.701Z,3.5
2019-01-29T16:05:15.896Z,3.5
2019-01-29T16:06:25.117Z,3.5
2019-01-29T16:07:34.336Z,3.5
2019-01-29T16:08:43.526Z,3.5
2019-01-29T16:09:52.714Z,3.5
2019-01-29T16:11:01.988Z,3.5
2019-01-29T16:12:11.121Z,3.5
2019-01-29T16:13:20.331Z,3.5
2019-01-29T16:14:29.530Z,4.3
2019-01-29T16:15:38.743Z,4.5
2019-01-29T16:16:48.026Z,5.1
2019-01-29T16:17:57.150Z,4.4
2019-01-29T16:19:06.424Z,4.8